Time;durP1;ratioP1;P1;durP2;ratioP2;P2;SDS_P1;SDS_P2;PMS_P1;PMS_P2;Temp;Humidity;BMP_temperature;BMP_pressure;BME280_temperature;BME280_humidity;BME280_pressure;Samples;Min_cycle;Max_cycle;Signal;HPM_P1;HPM_P2
2021/08/24 00:06:18;;;;;;;1.48;1.33;;;25.00;99.90;;;;;;20765958;28;20560;-82
2021/08/24 00:16:22;;;;;;;0.30;0.30;;;25.00;99.90;;;;;;20782933;28;20316;-81
2021/08/24 00:26:27;;;;;;;0.60;0.60;;;24.70;99.90;;;;;;20781806;28;20261;-80
2021/08/24 00:36:31;;;;;;;1.50;0.88;;;24.50;99.90;;;;;;20783249;28;20649;-80
2021/08/24 00:46:41;;;;;;;0.88;0.63;;;24.40;99.90;;;;;;20760885;28;20223;-80
2021/08/24 00:56:48;;;;;;;3.50;1.67;;;24.00;99.90;;;;;;20719776;23;20234;-80
2021/08/24 01:06:56;;;;;;;1.08;0.80;;;23.80;99.90;;;;;;20680878;28;20531;-80
2021/08/24 01:17:06;;;;;;;2.15;0.45;;;23.90;99.90;;;;;;20696703;28;20199;-81
2021/08/24 01:27:14;;;;;;;0.93;0.93;;;23.80;99.90;;;;;;20695267;28;20222;-80
2021/08/24 01:37:26;;;;;;;2.75;1.27;;;24.20;99.90;;;;;;20697437;28;20943;-80
2021/08/24 01:47:40;;;;;;;4.00;1.83;;;24.40;99.90;;;;;;20694598;28;20571;-81
2021/08/24 01:57:51;;;;;;;2.90;1.42;;;24.20;99.90;;;;;;20674730;28;20194;-80
2021/08/24 02:08:01;;;;;;;0.52;0.52;;;24.30;99.90;;;;;;20707123;28;20310;-81
2021/08/24 02:18:09;;;;;;;3.38;0.88;;;24.20;99.90;;;;;;20711547;28;20468;-81
2021/08/24 02:28:15;;;;;;;1.52;1.05;;;24.40;99.90;;;;;;20690133;28;20242;-76
2021/08/24 02:38:24;;;;;;;3.50;1.10;;;24.40;99.90;;;;;;20708954;28;20207;-81
2021/08/24 02:48:28;;;;;;;0.70;0.70;;;24.30;99.90;;;;;;20691052;28;20627;-81
2021/08/24 02:58:34;;;;;;;0.73;0.50;;;24.40;99.90;;;;;;20706423;28;20198;-80
2021/08/24 03:08:38;;;;;;;1.50;0.57;;;24.40;99.90;;;;;;20707696;28;20595;-80
2021/08/24 03:18:48;;;;;;;1.45;0.50;;;24.00;99.90;;;;;;20703291;28;20199;-80
2021/08/24 03:28:52;;;;;;;0.93;0.55;;;24.20;99.90;;;;;;20704737;28;20225;-81
2021/08/24 03:38:57;;;;;;;5.05;0.70;;;24.20;99.90;;;;;;20705603;28;20207;-81
2021/08/24 03:49:00;;;;;;;0.20;0.10;;;24.20;99.90;;;;;;20703629;28;20222;-81
2021/08/24 03:59:06;;;;;;;0.30;0.20;;;24.40;99.90;;;;;;20686161;28;20550;-80
2021/08/24 04:09:10;;;;;;;0.55;0.20;;;24.60;99.90;;;;;;20686630;28;20242;-82
2021/08/24 04:19:15;;;;;;;0.20;0.20;;;24.70;99.90;;;;;;20700952;28;20199;-80
2021/08/24 04:29:19;;;;;;;0.35;0.15;;;24.70;99.90;;;;;;20702477;28;20230;-82
2021/08/24 04:39:24;;;;;;;1.38;0.20;;;24.70;99.90;;;;;;20684070;28;20598;-82
2021/08/24 04:49:27;;;;;;;0.95;0.50;;;24.60;99.90;;;;;;20663518;28;20226;-82
2021/08/24 04:59:33;;;;;;;0.38;0.38;;;24.50;99.90;;;;;;20700049;28;20426;-81
2021/08/24 05:09:37;;;;;;;2.13;0.28;;;24.50;99.90;;;;;;20696054;28;20250;-78
2021/08/24 05:19:42;;;;;;;3.33;0.70;;;23.00;99.90;;;;;;20698801;28;20326;-78
2021/08/24 05:29:46;;;;;;;1.30;0.60;;;22.60;99.90;;;;;;20677552;28;20304;-78
2021/08/24 05:39:51;;;;;;;2.43;0.50;;;22.40;99.90;;;;;;20695480;28;20305;-79
2021/08/24 05:49:55;;;;;;;11.60;1.73;;;22.40;99.90;;;;;;20675259;28;20329;-78
2021/08/24 06:00:00;;;;;;;0.30;0.30;;;22.70;99.90;;;;;;20696980;28;20199;-78
2021/08/24 06:10:07;;;;;;;0.25;0.25;;;22.90;99.90;;;;;;20695204;28;20326;-81
2021/08/24 06:20:13;;;;;;;1.05;0.63;;;23.10;99.90;;;;;;20702269;28;20618;-82
2021/08/24 06:30:17;;;;;;;1.48;0.63;;;23.30;99.90;;;;;;20675958;28;20601;-79
2021/08/24 06:40:22;;;;;;;0.43;0.43;;;23.30;99.90;;;;;;20693095;28;20203;-83
2021/08/24 06:50:28;;;;;;;0.40;0.28;;;23.40;99.90;;;;;;20686044;28;20647;-82
2021/08/24 07:00:34;;;;;;;1.60;0.60;;;23.70;99.90;;;;;;20708094;28;20321;-82
2021/08/24 07:10:38;;;;;;;0.45;0.38;;;23.90;99.90;;;;;;20705214;28;20316;-80
2021/08/24 07:20:43;;;;;;;0.77;0.38;;;24.10;99.90;;;;;;20690188;28;20199;-79
2021/08/24 07:30:49;;;;;;;1.10;0.70;;;24.00;99.90;;;;;;20707996;28;20716;-83
2021/08/24 07:40:54;;;;;;;0.43;0.38;;;23.90;99.90;;;;;;20704811;28;20779;-81
2021/08/24 07:50:58;;;;;;;0.47;0.47;;;24.30;99.90;;;;;;20684599;28;20595;-82
2021/08/24 08:01:04;;;;;;;2.72;0.68;;;24.80;99.90;;;;;;20704191;28;20671;-83
2021/08/24 08:11:08;;;;;;;1.33;0.40;;;25.30;99.90;;;;;;20686985;28;20271;-80
2021/08/24 08:21:13;;;;;;;3.22;1.60;;;25.60;99.90;;;;;;20705197;28;20203;-81
2021/08/24 08:31:19;;;;;;;0.90;0.55;;;25.60;99.90;;;;;;20702667;28;20223;-83
2021/08/24 08:41:32;;;;;;;4.97;0.50;;;25.60;99.90;;;;;;20704126;28;20237;-81
2021/08/24 08:51:47;;;;;;;0.80;0.80;;;26.30;99.90;;;;;;20681925;28;20238;-77
2021/08/24 09:02:09;;;;;;;1.50;0.60;;;26.30;99.90;;;;;;20700483;28;20525;-81
2021/08/24 09:12:14;;;;;;;1.27;0.65;;;26.60;99.90;;;;;;20699852;28;20233;-79
2021/08/24 09:22:21;;;;;;;1.15;0.85;;;26.40;99.90;;;;;;20683388;28;20293;-81
2021/08/24 09:32:29;;;;;;;0.63;0.52;;;26.40;99.90;;;;;;20699629;28;20234;-83
2021/08/24 09:42:37;;;;;;;0.90;0.57;;;26.50;99.90;;;;;;20697512;28;20195;-79
2021/08/24 09:52:47;;;;;;;0.50;0.50;;;26.80;99.90;;;;;;20707293;28;20238;-77
2021/08/24 10:02:54;;;;;;;1.98;1.02;;;26.90;99.90;;;;;;20701041;28;20207;-77
2021/08/24 10:13:00;;;;;;;2.45;0.60;;;26.30;99.90;;;;;;20693816;28;20692;-78
2021/08/24 10:23:15;;;;;;;8.40;1.17;;;26.00;99.90;;;;;;20700546;28;20217;-79
2021/08/24 10:33:28;;;;;;;0.30;0.28;;;26.80;99.90;;;;;;20694349;28;20305;-81
2021/08/24 10:43:35;;;;;;;4.60;0.40;;;27.70;99.90;;;;;;20699150;28;20625;-81
2021/08/24 10:53:50;;;;;;;0.82;0.82;;;27.30;99.90;;;;;;20709185;28;20221;-80
2021/08/24 11:04:10;;;;;;;2.08;0.60;;;27.40;99.90;;;;;;20690385;28;20213;-82
2021/08/24 11:14:24;;;;;;;2.03;1.15;;;29.10;99.90;;;;;;20705686;28;20209;-75
2021/08/24 11:24:36;;;;;;;1.00;0.63;;;29.10;99.90;;;;;;20695619;28;20317;-83
2021/08/24 11:34:44;;;;;;;0.55;0.55;;;29.40;99.90;;;;;;20707471;28;20208;-79
2021/08/24 11:44:56;;;;;;;1.58;1.15;;;30.80;99.90;;;;;;20691200;28;20452;-82
2021/08/24 11:55:05;;;;;;;1.13;0.80;;;31.10;99.90;;;;;;20705218;28;20233;-77
2021/08/24 12:05:21;;;;;;;0.50;0.50;;;31.50;99.90;;;;;;20705442;28;20521;-83
2021/08/24 12:15:37;;;;;;;3.38;0.55;;;31.80;99.90;;;;;;20705392;28;20528;-86
2021/08/24 12:25:47;;;;;;;1.13;1.02;;;31.90;99.90;;;;;;20703880;28;20226;-83
2021/08/24 12:35:51;;;;;;;3.72;2.03;;;31.90;99.90;;;;;;20702492;28;20529;-81
2021/08/24 12:46:34;;;;;;;0.80;0.70;;;32.40;99.90;;;;;;20703991;28;20304;-84
2021/08/24 12:56:47;;;;;;;0.68;0.60;;;32.80;99.90;;;;;;20675736;28;20231;-83
2021/08/24 13:07:21;;;;;;;0.80;0.70;;;33.10;99.90;;;;;;20678141;28;20714;-84
2021/08/24 13:17:31;;;;;;;0.80;0.70;;;32.70;99.90;;;;;;20687601;28;20230;-78
2021/08/24 13:27:43;;;;;;;1.45;1.30;;;34.00;99.90;;;;;;20739118;28;20226;-81
2021/08/24 13:38:04;;;;;;;0.90;0.55;;;33.80;99.90;;;;;;20701491;28;20202;-76
2021/08/24 13:48:12;;;;;;;0.50;0.50;;;33.90;99.90;;;;;;20698726;28;20234;-82
2021/08/24 13:58:24;;;;;;;0.47;0.43;;;33.80;99.90;;;;;;20683370;28;20631;-81
2021/08/24 14:08:30;;;;;;;0.38;0.20;;;34.40;99.90;;;;;;20702149;28;20226;-80
2021/08/24 14:18:39;;;;;;;1.50;0.73;;;33.90;99.90;;;;;;20695225;28;20194;-79
2021/08/24 14:28:45;;;;;;;1.23;0.65;;;33.70;99.90;;;;;;20666662;28;20228;-81
2021/08/24 14:38:55;;;;;;;1.60;1.00;;;34.40;99.90;;;;;;20681010;28;20207;-83
2021/08/24 14:49:07;;;;;;;0.95;0.82;;;34.50;99.90;;;;;;20696560;28;20233;-82
2021/08/24 14:59:28;;;;;;;0.75;0.75;;;34.60;99.90;;;;;;20699357;28;20191;-83
2021/08/24 15:09:51;;;;;;;2.25;1.10;;;31.00;99.90;;;;;;20698532;28;20226;-85
2021/08/24 15:19:58;;;;;;;1.77;0.80;;;29.80;99.90;;;;;;20687390;28;20377;-73
2021/08/24 15:30:17;;;;;;;0.60;0.40;;;29.00;99.90;;;;;;20707074;28;20581;-79
2021/08/24 15:40:22;;;;;;;0.73;0.40;;;29.20;99.90;;;;;;20691650;28;20284;-78
2021/08/24 15:50:29;;;;;;;2.38;0.77;;;30.30;99.90;;;;;;20683524;28;20240;-76
2021/08/24 16:00:36;;;;;;;0.70;0.40;;;29.60;99.90;;;;;;20702767;28;20407;-74
2021/08/24 16:10:43;;;;;;;0.73;0.73;;;29.00;99.90;;;;;;20692605;28;20285;-78
2021/08/24 16:20:52;;;;;;;2.97;1.02;;;29.20;99.90;;;;;;20695791;28;20218;-79
2021/08/24 16:30:56;;;;;;;0.88;0.85;;;28.30;99.90;;;;;;20699442;28;20799;-78
2021/08/24 16:41:03;;;;;;;1.42;1.20;;;28.10;99.90;;;;;;20696449;28;20687;-79
2021/08/24 16:51:09;;;;;;;1.05;0.73;;;27.90;99.90;;;;;;20698077;28;20234;-77
2021/08/24 17:01:14;;;;;;;2.17;1.25;;;28.00;99.90;;;;;;20698783;28;20645;-77
2021/08/24 17:11:20;;;;;;;2.05;0.82;;;28.10;99.90;;;;;;20702145;28;20223;-77
2021/08/24 17:21:28;;;;;;;2.42;1.70;;;27.70;99.90;;;;;;22356054;22;20230;-80
2021/08/24 17:31:38;;;;;;;0.95;0.68;;;27.10;99.90;;;;;;20728042;28;20242;-78
2021/08/24 17:41:50;;;;;;;0.68;0.60;;;26.80;99.90;;;;;;20732569;28;20680;-75
2021/08/24 17:51:55;;;;;;;2.80;0.95;;;26.70;99.90;;;;;;20780677;28;20221;-77
2021/08/24 18:02:01;;;;;;;0.40;0.40;;;26.80;99.90;;;;;;20790468;28;20201;-75
2021/08/24 18:12:44;;;;;;;2.88;1.42;;;26.40;99.90;;;;;;20753501;28;20236;-78
2021/08/24 18:22:59;;;;;;;0.85;0.65;;;26.40;99.90;;;;;;20721713;28;20460;-82
2021/08/24 18:33:05;;;;;;;2.53;0.65;;;25.90;99.90;;;;;;20722632;28;20312;-77
2021/08/24 18:43:11;;;;;;;2.05;0.75;;;25.90;99.90;;;;;;20726084;28;20186;-77
2021/08/24 18:53:17;;;;;;;7.10;0.88;;;25.90;99.90;;;;;;20790619;28;20230;-77
2021/08/24 19:03:23;;;;;;;0.63;0.57;;;25.70;99.90;;;;;;20737318;28;20215;-78
2021/08/24 19:13:27;;;;;;;1.42;1.00;;;25.70;99.90;;;;;;20720753;28;20277;-81
2021/08/24 19:23:40;;;;;;;2.58;1.50;;;25.70;99.90;;;;;;20753454;28;20700;-79
2021/08/24 19:33:47;;;;;;;1.70;0.68;;;25.60;99.90;;;;;;20738672;28;20257;-80
2021/08/24 19:43:53;;;;;;;0.77;0.73;;;25.80;99.90;;;;;;22868294;23;20629;-80
2021/08/24 19:53:56;;;;;;;1.05;0.55;;;25.70;99.90;;;;;;20680512;28;20230;-82
2021/08/24 20:04:02;;;;;;;0.43;0.43;;;25.60;99.90;;;;;;20686806;28;20207;-81
2021/08/24 20:14:10;;;;;;;0.90;0.77;;;25.60;99.90;;;;;;20704275;28;20330;-79
2021/08/24 20:24:24;;;;;;;1.17;0.80;;;25.40;99.90;;;;;;20650232;28;20202;-77
2021/08/24 20:34:28;;;;;;;1.05;0.68;;;25.10;99.90;;;;;;20725041;28;20634;-80
2021/08/24 20:44:33;;;;;;;2.47;1.42;;;25.00;99.90;;;;;;20763207;28;20245;-74
2021/08/24 20:54:37;;;;;;;1.92;1.20;;;24.50;99.90;;;;;;20780737;28;20232;-73
2021/08/24 21:04:42;;;;;;;1.63;0.60;;;24.50;99.90;;;;;;20715901;28;20253;-75
2021/08/24 21:14:46;;;;;;;3.75;0.85;;;24.20;99.90;;;;;;20698039;28;20234;-74
2021/08/24 21:24:51;;;;;;;0.77;0.52;;;23.80;99.90;;;;;;20739998;28;20490;-80
2021/08/24 21:34:54;;;;;;;0.57;0.47;;;24.00;99.90;;;;;;20738563;28;20284;-80
2021/08/24 21:45:00;;;;;;;2.25;1.13;;;24.00;99.90;;;;;;20734053;28;20237;-81
2021/08/24 21:55:04;;;;;;;2.47;0.70;;;24.10;99.90;;;;;;20727681;28;20227;-80
2021/08/24 22:05:12;;;;;;;1.55;0.45;;;24.00;99.90;;;;;;20675648;28;20226;-80
2021/08/24 22:15:17;;;;;;;1.63;0.90;;;24.20;99.90;;;;;;20693532;28;20229;-82
2021/08/24 22:25:23;;;;;;;0.73;0.60;;;24.10;99.90;;;;;;20708625;28;20298;-82
2021/08/24 22:35:26;;;;;;;7.97;1.15;;;23.80;99.90;;;;;;20709789;28;20249;-82
2021/08/24 22:45:32;;;;;;;0.70;0.40;;;23.80;99.90;;;;;;20676904;28;20314;-83
2021/08/24 22:55:36;;;;;;;0.77;0.73;;;23.70;99.90;;;;;;20725633;28;20587;-83
2021/08/24 23:05:41;;;;;;;0.50;0.50;;;23.70;99.90;;;;;;20709443;28;20548;-79
2021/08/24 23:15:45;;;;;;;1.43;0.43;;;23.70;99.90;;;;;;20689623;28;20552;-84
2021/08/24 23:25:50;;;;;;;0.67;0.60;;;23.40;99.90;;;;;;20708740;28;20206;-87
2021/08/24 23:35:54;;;;;;;2.97;0.98;;;23.40;99.90;;;;;;20709504;28;20230;-79
2021/08/24 23:45:59;;;;;;;0.80;0.80;;;23.30;99.90;;;;;;20714563;28;20223;-89
2021/08/24 23:56:03;;;;;;;3.03;0.53;;;23.30;99.90;;;;;;20707290;28;20940;-87
